sensor_id;sensor_type;location;lat;lon;timestamp;P1;durP1;ratioP1;P2;durP2;ratioP2
56860;SDS011;42744;51.094;3.490;2024-02-04T00:00:07;24.83;;;8.13;;
56860;SDS011;42744;51.094;3.490;2024-02-04T00:02:36;24.97;;;8.93;;
56860;SDS011;42744;51.094;3.490;2024-02-04T00:05:04;30.00;;;9.23;;
56860;SDS011;42744;51.094;3.490;2024-02-04T00:07:29;24.13;;;8.80;;
56860;SDS011;42744;51.094;3.490;2024-02-04T00:09:55;29.57;;;9.13;;
56860;SDS011;42744;51.094;3.490;2024-02-04T00:12:21;27.10;;;9.97;;
56860;SDS011;42744;51.094;3.490;2024-02-04T00:14:47;28.93;;;9.83;;
56860;SDS011;42744;51.094;3.490;2024-02-04T00:17:17;21.20;;;8.87;;
56860;SDS011;42744;51.094;3.490;2024-02-04T00:19:46;28.77;;;10.07;;
56860;SDS011;42744;51.094;3.490;2024-02-04T00:22:12;28.90;;;9.60;;
56860;SDS011;42744;51.094;3.490;2024-02-04T00:24:38;25.17;;;9.57;;
56860;SDS011;42744;51.094;3.490;2024-02-04T00:27:04;24.97;;;9.10;;
56860;SDS011;42744;51.094;3.490;2024-02-04T00:29:30;27.57;;;10.77;;
56860;SDS011;42744;51.094;3.490;2024-02-04T00:31:56;28.20;;;10.10;;
56860;SDS011;42744;51.094;3.490;2024-02-04T00:34:22;23.27;;;10.10;;
56860;SDS011;42744;51.094;3.490;2024-02-04T00:36:48;26.23;;;10.27;;
56860;SDS011;42744;51.094;3.490;2024-02-04T00:39:16;27.53;;;10.90;;
56860;SDS011;42744;51.094;3.490;2024-02-04T00:41:42;28.27;;;10.30;;
56860;SDS011;42744;51.094;3.490;2024-02-04T00:44:08;28.90;;;10.53;;
56860;SDS011;42744;51.094;3.490;2024-02-04T00:46:34;33.43;;;10.47;;
56860;SDS011;42744;51.094;3.490;2024-02-04T00:49:00;30.47;;;11.03;;
56860;SDS011;42744;51.094;3.490;2024-02-04T00:51:26;24.63;;;11.13;;
56860;SDS011;42744;51.094;3.490;2024-02-04T00:53:52;31.50;;;11.53;;
56860;SDS011;42744;51.094;3.490;2024-02-04T00:56:18;29.80;;;10.80;;
56860;SDS011;42744;51.094;3.490;2024-02-04T00:58:44;31.73;;;11.43;;
56860;SDS011;42744;51.094;3.490;2024-02-04T01:01:10;31.93;;;10.93;;
56860;SDS011;42744;51.094;3.490;2024-02-04T01:03:36;27.13;;;10.30;;
56860;SDS011;42744;51.094;3.490;2024-02-04T01:06:02;30.70;;;10.17;;
56860;SDS011;42744;51.094;3.490;2024-02-04T01:08:28;29.07;;;11.17;;
56860;SDS011;42744;51.094;3.490;2024-02-04T01:10:54;28.13;;;10.73;;
56860;SDS011;42744;51.094;3.490;2024-02-04T01:13:20;31.57;;;10.43;;
56860;SDS011;42744;51.094;3.490;2024-02-04T01:15:46;19.83;;;10.80;;
56860;SDS011;42744;51.094;3.490;2024-02-04T01:18:12;36.63;;;11.27;;
56860;SDS011;42744;51.094;3.490;2024-02-04T01:20:38;28.40;;;11.07;;
56860;SDS011;42744;51.094;3.490;2024-02-04T01:23:04;28.60;;;11.47;;
56860;SDS011;42744;51.094;3.490;2024-02-04T01:25:30;33.87;;;11.53;;
56860;SDS011;42744;51.094;3.490;2024-02-04T01:27:56;31.97;;;10.93;;
56860;SDS011;42744;51.094;3.490;2024-02-04T01:30:22;26.60;;;10.23;;
56860;SDS011;42744;51.094;3.490;2024-02-04T01:32:48;28.10;;;10.23;;
56860;SDS011;42744;51.094;3.490;2024-02-04T01:35:14;29.17;;;10.13;;
56860;SDS011;42744;51.094;3.490;2024-02-04T01:37:40;25.83;;;9.60;;
56860;SDS011;42744;51.094;3.490;2024-02-04T01:40:09;20.97;;;9.40;;
56860;SDS011;42744;51.094;3.490;2024-02-04T01:42:35;29.00;;;10.70;;
56860;SDS011;42744;51.094;3.490;2024-02-04T01:45:01;30.83;;;10.90;;
56860;SDS011;42744;51.094;3.490;2024-02-04T01:47:27;30.20;;;10.47;;
56860;SDS011;42744;51.094;3.490;2024-02-04T01:49:53;23.40;;;11.07;;
56860;SDS011;42744;51.094;3.490;2024-02-04T01:52:19;23.00;;;11.60;;
56860;SDS011;42744;51.094;3.490;2024-02-04T01:54:45;24.60;;;10.80;;
56860;SDS011;42744;51.094;3.490;2024-02-04T01:57:12;23.10;;;11.00;;
56860;SDS011;42744;51.094;3.490;2024-02-04T01:59:39;28.43;;;11.80;;
56860;SDS011;42744;51.094;3.490;2024-02-04T02:02:06;29.97;;;10.23;;
56860;SDS011;42744;51.094;3.490;2024-02-04T02:04:33;26.37;;;10.93;;
56860;SDS011;42744;51.094;3.490;2024-02-04T02:06:58;23.37;;;9.73;;
56860;SDS011;42744;51.094;3.490;2024-02-04T02:09:25;32.77;;;10.27;;
56860;SDS011;42744;51.094;3.490;2024-02-04T02:12:02;21.37;;;8.50;;
56860;SDS011;42744;51.094;3.490;2024-02-04T02:14:36;19.00;;;8.27;;
56860;SDS011;42744;51.094;3.490;2024-02-04T02:17:11;21.40;;;8.40;;
56860;SDS011;42744;51.094;3.490;2024-02-04T02:22:29;24.67;;;8.43;;
56860;SDS011;42744;51.094;3.490;2024-02-04T02:25:03;24.13;;;7.23;;
56860;SDS011;42744;51.094;3.490;2024-02-04T02:27:30;24.00;;;8.00;;
56860;SDS011;42744;51.094;3.490;2024-02-04T02:29:56;21.63;;;7.50;;
56860;SDS011;42744;51.094;3.490;2024-02-04T02:32:22;22.40;;;7.47;;
56860;SDS011;42744;51.094;3.490;2024-02-04T02:34:49;24.20;;;7.97;;
56860;SDS011;42744;51.094;3.490;2024-02-04T02:40:23;28.40;;;8.73;;
56860;SDS011;42744;51.094;3.490;2024-02-04T02:43:09;28.33;;;10.37;;
56860;SDS011;42744;51.094;3.490;2024-02-04T02:45:38;27.40;;;9.80;;
56860;SDS011;42744;51.094;3.490;2024-02-04T02:48:07;24.20;;;9.13;;
56860;SDS011;42744;51.094;3.490;2024-02-04T02:50:35;26.80;;;10.43;;
56860;SDS011;42744;51.094;3.490;2024-02-04T02:53:01;27.43;;;9.73;;
56860;SDS011;42744;51.094;3.490;2024-02-04T02:55:28;26.83;;;9.93;;
56860;SDS011;42744;51.094;3.490;2024-02-04T02:57:53;29.37;;;11.13;;
56860;SDS011;42744;51.094;3.490;2024-02-04T03:00:20;26.67;;;10.47;;
56860;SDS011;42744;51.094;3.490;2024-02-04T03:02:46;28.47;;;11.43;;
56860;SDS011;42744;51.094;3.490;2024-02-04T03:05:12;25.73;;;12.27;;
56860;SDS011;42744;51.094;3.490;2024-02-04T03:07:38;30.33;;;12.07;;
56860;SDS011;42744;51.094;3.490;2024-02-04T03:10:04;32.13;;;12.70;;
56860;SDS011;42744;51.094;3.490;2024-02-04T03:12:30;28.43;;;13.37;;
56860;SDS011;42744;51.094;3.490;2024-02-04T03:14:57;31.60;;;13.00;;
56860;SDS011;42744;51.094;3.490;2024-02-04T03:17:22;23.30;;;11.73;;
56860;SDS011;42744;51.094;3.490;2024-02-04T03:19:49;23.40;;;11.63;;
56860;SDS011;42744;51.094;3.490;2024-02-04T03:22:23;26.83;;;11.40;;
56860;SDS011;42744;51.094;3.490;2024-02-04T03:24:49;29.53;;;11.30;;
56860;SDS011;42744;51.094;3.490;2024-02-04T03:27:18;32.10;;;11.40;;
56860;SDS011;42744;51.094;3.490;2024-02-04T03:29:46;27.77;;;10.80;;
56860;SDS011;42744;51.094;3.490;2024-02-04T03:32:12;24.20;;;10.37;;
56860;SDS011;42744;51.094;3.490;2024-02-04T03:34:38;24.90;;;10.17;;
56860;SDS011;42744;51.094;3.490;2024-02-04T03:37:06;31.27;;;9.67;;
56860;SDS011;42744;51.094;3.490;2024-02-04T03:39:32;29.83;;;11.33;;
56860;SDS011;42744;51.094;3.490;2024-02-04T03:41:58;20.37;;;10.10;;
56860;SDS011;42744;51.094;3.490;2024-02-04T03:44:24;23.40;;;10.47;;
56860;SDS011;42744;51.094;3.490;2024-02-04T03:46:50;24.00;;;11.30;;
56860;SDS011;42744;51.094;3.490;2024-02-04T03:49:16;23.43;;;9.67;;
56860;SDS011;42744;51.094;3.490;2024-02-04T03:51:43;20.30;;;10.03;;
56860;SDS011;42744;51.094;3.490;2024-02-04T03:54:09;22.77;;;9.90;;
56860;SDS011;42744;51.094;3.490;2024-02-04T03:56:35;21.57;;;9.90;;
56860;SDS011;42744;51.094;3.490;2024-02-04T03:59:01;23.07;;;9.23;;
56860;SDS011;42744;51.094;3.490;2024-02-04T04:01:27;20.50;;;9.13;;
56860;SDS011;42744;51.094;3.490;2024-02-04T04:03:53;18.67;;;8.83;;
56860;SDS011;42744;51.094;3.490;2024-02-04T04:06:20;21.37;;;9.77;;
56860;SDS011;42744;51.094;3.490;2024-02-04T04:08:45;19.63;;;10.40;;
56860;SDS011;42744;51.094;3.490;2024-02-04T04:11:11;21.60;;;10.07;;
56860;SDS011;42744;51.094;3.490;2024-02-04T04:13:37;22.37;;;9.20;;
56860;SDS011;42744;51.094;3.490;2024-02-04T04:16:04;18.43;;;10.03;;
56860;SDS011;42744;51.094;3.490;2024-02-04T04:18:30;25.07;;;9.73;;
56860;SDS011;42744;51.094;3.490;2024-02-04T04:20:56;24.37;;;9.70;;
56860;SDS011;42744;51.094;3.490;2024-02-04T04:23:22;18.30;;;8.57;;
56860;SDS011;42744;51.094;3.490;2024-02-04T04:25:48;18.87;;;8.00;;
56860;SDS011;42744;51.094;3.490;2024-02-04T04:28:14;24.63;;;8.57;;
56860;SDS011;42744;51.094;3.490;2024-02-04T04:30:40;19.03;;;8.00;;
56860;SDS011;42744;51.094;3.490;2024-02-04T04:33:06;16.93;;;7.63;;
56860;SDS011;42744;51.094;3.490;2024-02-04T04:35:33;23.83;;;8.33;;
56860;SDS011;42744;51.094;3.490;2024-02-04T04:37:59;23.70;;;7.47;;
56860;SDS011;42744;51.094;3.490;2024-02-04T04:40:25;23.07;;;6.80;;
56860;SDS011;42744;51.094;3.490;2024-02-04T04:42:51;18.10;;;6.43;;
56860;SDS011;42744;51.094;3.490;2024-02-04T04:45:17;21.27;;;6.47;;
56860;SDS011;42744;51.094;3.490;2024-02-04T04:47:43;26.40;;;6.83;;
56860;SDS011;42744;51.094;3.490;2024-02-04T04:50:09;18.70;;;6.33;;
56860;SDS011;42744;51.094;3.490;2024-02-04T04:52:35;20.17;;;5.80;;
56860;SDS011;42744;51.094;3.490;2024-02-04T04:55:01;16.27;;;5.67;;
56860;SDS011;42744;51.094;3.490;2024-02-04T04:57:28;15.50;;;5.00;;
56860;SDS011;42744;51.094;3.490;2024-02-04T04:59:54;13.10;;;4.83;;
56860;SDS011;42744;51.094;3.490;2024-02-04T05:02:20;15.87;;;5.70;;
56860;SDS011;42744;51.094;3.490;2024-02-04T05:04:46;16.70;;;4.73;;
56860;SDS011;42744;51.094;3.490;2024-02-04T05:07:13;12.60;;;4.97;;
56860;SDS011;42744;51.094;3.490;2024-02-04T05:09:39;14.67;;;5.60;;
56860;SDS011;42744;51.094;3.490;2024-02-04T05:12:07;14.23;;;5.63;;
56860;SDS011;42744;51.094;3.490;2024-02-04T05:14:34;18.33;;;5.60;;
56860;SDS011;42744;51.094;3.490;2024-02-04T05:17:00;16.97;;;5.60;;
56860;SDS011;42744;51.094;3.490;2024-02-04T05:19:25;27.13;;;5.73;;
56860;SDS011;42744;51.094;3.490;2024-02-04T05:21:51;15.03;;;5.33;;
56860;SDS011;42744;51.094;3.490;2024-02-04T05:24:17;14.23;;;5.40;;
56860;SDS011;42744;51.094;3.490;2024-02-04T05:26:43;12.87;;;4.73;;
56860;SDS011;42744;51.094;3.490;2024-02-04T05:29:09;13.37;;;4.97;;
56860;SDS011;42744;51.094;3.490;2024-02-04T05:31:42;12.67;;;4.73;;
56860;SDS011;42744;51.094;3.490;2024-02-04T05:34:08;13.63;;;5.27;;
56860;SDS011;42744;51.094;3.490;2024-02-04T05:36:36;14.17;;;5.20;;
56860;SDS011;42744;51.094;3.490;2024-02-04T05:39:08;15.93;;;6.17;;
56860;SDS011;42744;51.094;3.490;2024-02-04T05:41:41;13.80;;;6.03;;
56860;SDS011;42744;51.094;3.490;2024-02-04T05:44:07;13.50;;;7.30;;
56860;SDS011;42744;51.094;3.490;2024-02-04T05:46:37;14.87;;;6.80;;
56860;SDS011;42744;51.094;3.490;2024-02-04T05:49:04;18.57;;;8.03;;
56860;SDS011;42744;51.094;3.490;2024-02-04T05:51:39;18.03;;;7.77;;
56860;SDS011;42744;51.094;3.490;2024-02-04T05:54:06;19.73;;;8.40;;
56860;SDS011;42744;51.094;3.490;2024-02-04T05:56:33;20.93;;;8.83;;
56860;SDS011;42744;51.094;3.490;2024-02-04T05:58:59;19.27;;;9.00;;
56860;SDS011;42744;51.094;3.490;2024-02-04T06:01:25;24.20;;;9.40;;
56860;SDS011;42744;51.094;3.490;2024-02-04T06:03:52;19.47;;;9.40;;
56860;SDS011;42744;51.094;3.490;2024-02-04T06:06:18;16.67;;;9.83;;
56860;SDS011;42744;51.094;3.490;2024-02-04T06:08:45;22.70;;;9.73;;
56860;SDS011;42744;51.094;3.490;2024-02-04T06:11:12;22.60;;;10.83;;
56860;SDS011;42744;51.094;3.490;2024-02-04T06:13:39;19.67;;;9.57;;
56860;SDS011;42744;51.094;3.490;2024-02-04T06:16:07;19.97;;;9.37;;
56860;SDS011;42744;51.094;3.490;2024-02-04T06:18:34;20.30;;;10.10;;
56860;SDS011;42744;51.094;3.490;2024-02-04T06:21:03;20.63;;;9.40;;
56860;SDS011;42744;51.094;3.490;2024-02-04T06:23:29;15.97;;;8.40;;
56860;SDS011;42744;51.094;3.490;2024-02-04T06:25:55;19.60;;;8.80;;
56860;SDS011;42744;51.094;3.490;2024-02-04T06:28:21;14.33;;;8.43;;
56860;SDS011;42744;51.094;3.490;2024-02-04T06:30:48;21.93;;;8.87;;
56860;SDS011;42744;51.094;3.490;2024-02-04T06:33:14;16.33;;;7.10;;
56860;SDS011;42744;51.094;3.490;2024-02-04T06:35:40;13.63;;;7.47;;
56860;SDS011;42744;51.094;3.490;2024-02-04T06:38:06;14.60;;;6.97;;
56860;SDS011;42744;51.094;3.490;2024-02-04T06:40:32;13.50;;;6.37;;
56860;SDS011;42744;51.094;3.490;2024-02-04T06:42:58;14.80;;;5.53;;
56860;SDS011;42744;51.094;3.490;2024-02-04T06:45:24;10.67;;;4.63;;
56860;SDS011;42744;51.094;3.490;2024-02-04T06:47:50;12.37;;;4.50;;
56860;SDS011;42744;51.094;3.490;2024-02-04T06:50:16;12.27;;;4.60;;
56860;SDS011;42744;51.094;3.490;2024-02-04T06:52:42;15.27;;;4.53;;
56860;SDS011;42744;51.094;3.490;2024-02-04T06:55:09;11.00;;;4.93;;
56860;SDS011;42744;51.094;3.490;2024-02-04T06:57:35;8.00;;;3.80;;
56860;SDS011;42744;51.094;3.490;2024-02-04T07:00:01;9.03;;;3.30;;
56860;SDS011;42744;51.094;3.490;2024-02-04T07:02:31;10.50;;;3.33;;
56860;SDS011;42744;51.094;3.490;2024-02-04T07:04:57;12.07;;;3.40;;
56860;SDS011;42744;51.094;3.490;2024-02-04T07:07:23;9.37;;;2.80;;
56860;SDS011;42744;51.094;3.490;2024-02-04T07:09:49;14.13;;;3.30;;
56860;SDS011;42744;51.094;3.490;2024-02-04T07:12:15;8.40;;;3.40;;
56860;SDS011;42744;51.094;3.490;2024-02-04T07:14:40;10.60;;;3.53;;
56860;SDS011;42744;51.094;3.490;2024-02-04T07:17:07;10.40;;;3.23;;
56860;SDS011;42744;51.094;3.490;2024-02-04T07:19:32;8.83;;;2.97;;
56860;SDS011;42744;51.094;3.490;2024-02-04T07:22:01;9.77;;;3.73;;
56860;SDS011;42744;51.094;3.490;2024-02-04T07:24:27;10.67;;;3.70;;
56860;SDS011;42744;51.094;3.490;2024-02-04T07:26:53;7.23;;;3.60;;
56860;SDS011;42744;51.094;3.490;2024-02-04T07:29:18;9.83;;;3.80;;
56860;SDS011;42744;51.094;3.490;2024-02-04T07:31:44;7.07;;;3.40;;
56860;SDS011;42744;51.094;3.490;2024-02-04T07:34:10;9.63;;;3.40;;
56860;SDS011;42744;51.094;3.490;2024-02-04T07:36:37;13.43;;;4.47;;
56860;SDS011;42744;51.094;3.490;2024-02-04T07:39:06;11.43;;;3.40;;
56860;SDS011;42744;51.094;3.490;2024-02-04T07:41:31;10.10;;;3.13;;
56860;SDS011;42744;51.094;3.490;2024-02-04T07:43:57;4.67;;;2.47;;
56860;SDS011;42744;51.094;3.490;2024-02-04T07:46:24;5.97;;;3.23;;
56860;SDS011;42744;51.094;3.490;2024-02-04T07:48:49;9.50;;;2.53;;
56860;SDS011;42744;51.094;3.490;2024-02-04T07:51:15;9.63;;;2.70;;
56860;SDS011;42744;51.094;3.490;2024-02-04T07:53:41;6.43;;;2.00;;
56860;SDS011;42744;51.094;3.490;2024-02-04T07:56:07;4.67;;;1.70;;
56860;SDS011;42744;51.094;3.490;2024-02-04T07:58:33;8.63;;;2.27;;
56860;SDS011;42744;51.094;3.490;2024-02-04T08:00:59;8.40;;;2.73;;
56860;SDS011;42744;51.094;3.490;2024-02-04T08:03:25;8.30;;;2.33;;
56860;SDS011;42744;51.094;3.490;2024-02-04T08:05:52;8.23;;;2.60;;
56860;SDS011;42744;51.094;3.490;2024-02-04T08:08:21;6.40;;;2.53;;
56860;SDS011;42744;51.094;3.490;2024-02-04T08:10:47;10.93;;;2.27;;
56860;SDS011;42744;51.094;3.490;2024-02-04T08:13:13;5.77;;;2.17;;
56860;SDS011;42744;51.094;3.490;2024-02-04T08:15:39;5.80;;;2.30;;
56860;SDS011;42744;51.094;3.490;2024-02-04T08:18:06;9.40;;;2.90;;
56860;SDS011;42744;51.094;3.490;2024-02-04T08:20:31;8.03;;;2.50;;
56860;SDS011;42744;51.094;3.490;2024-02-04T08:22:57;7.80;;;2.73;;
56860;SDS011;42744;51.094;3.490;2024-02-04T08:25:24;9.97;;;2.50;;
56860;SDS011;42744;51.094;3.490;2024-02-04T08:27:49;7.77;;;2.40;;
56860;SDS011;42744;51.094;3.490;2024-02-04T08:30:15;7.57;;;2.80;;
56860;SDS011;42744;51.094;3.490;2024-02-04T08:32:43;10.13;;;2.57;;
56860;SDS011;42744;51.094;3.490;2024-02-04T08:35:10;8.23;;;2.70;;
56860;SDS011;42744;51.094;3.490;2024-02-04T08:37:36;6.37;;;1.87;;
56860;SDS011;42744;51.094;3.490;2024-02-04T08:40:05;7.93;;;2.20;;
56860;SDS011;42744;51.094;3.490;2024-02-04T08:42:31;7.63;;;2.23;;
56860;SDS011;42744;51.094;3.490;2024-02-04T08:44:57;6.63;;;2.33;;
56860;SDS011;42744;51.094;3.490;2024-02-04T08:47:23;6.53;;;2.73;;
56860;SDS011;42744;51.094;3.490;2024-02-04T08:49:49;8.60;;;2.50;;
56860;SDS011;42744;51.094;3.490;2024-02-04T08:52:15;7.13;;;2.60;;
56860;SDS011;42744;51.094;3.490;2024-02-04T08:54:41;7.90;;;2.90;;
56860;SDS011;42744;51.094;3.490;2024-02-04T08:57:07;10.13;;;3.10;;
56860;SDS011;42744;51.094;3.490;2024-02-04T08:59:33;8.63;;;2.57;;
56860;SDS011;42744;51.094;3.490;2024-02-04T09:01:59;7.50;;;2.60;;
56860;SDS011;42744;51.094;3.490;2024-02-04T09:04:25;8.80;;;2.87;;
56860;SDS011;42744;51.094;3.490;2024-02-04T09:06:51;7.17;;;2.33;;
56860;SDS011;42744;51.094;3.490;2024-02-04T09:09:17;9.53;;;2.80;;
56860;SDS011;42744;51.094;3.490;2024-02-04T09:11:43;10.00;;;2.60;;
56860;SDS011;42744;51.094;3.490;2024-02-04T09:14:08;13.27;;;3.20;;
56860;SDS011;42744;51.094;3.490;2024-02-04T09:16:37;7.03;;;2.30;;
56860;SDS011;42744;51.094;3.490;2024-02-04T09:19:04;6.90;;;2.07;;
56860;SDS011;42744;51.094;3.490;2024-02-04T09:21:30;7.17;;;2.97;;
56860;SDS011;42744;51.094;3.490;2024-02-04T09:23:56;10.33;;;2.97;;
56860;SDS011;42744;51.094;3.490;2024-02-04T09:26:22;11.20;;;2.80;;
56860;SDS011;42744;51.094;3.490;2024-02-04T09:28:48;7.43;;;2.43;;
56860;SDS011;42744;51.094;3.490;2024-02-04T09:31:14;7.17;;;2.20;;
56860;SDS011;42744;51.094;3.490;2024-02-04T09:33:41;8.50;;;2.37;;
56860;SDS011;42744;51.094;3.490;2024-02-04T09:36:07;8.57;;;2.70;;
56860;SDS011;42744;51.094;3.490;2024-02-04T09:38:33;7.87;;;2.33;;
56860;SDS011;42744;51.094;3.490;2024-02-04T09:41:00;4.30;;;2.00;;
56860;SDS011;42744;51.094;3.490;2024-02-04T09:43:29;5.20;;;2.40;;
56860;SDS011;42744;51.094;3.490;2024-02-04T09:45:57;7.23;;;2.40;;
56860;SDS011;42744;51.094;3.490;2024-02-04T09:48:25;9.20;;;2.57;;
56860;SDS011;42744;51.094;3.490;2024-02-04T09:50:52;9.03;;;2.50;;
56860;SDS011;42744;51.094;3.490;2024-02-04T09:53:20;6.63;;;2.87;;
56860;SDS011;42744;51.094;3.490;2024-02-04T09:55:52;8.57;;;2.87;;
56860;SDS011;42744;51.094;3.490;2024-02-04T09:58:18;5.87;;;2.77;;
56860;SDS011;42744;51.094;3.490;2024-02-04T10:00:45;9.80;;;2.70;;
56860;SDS011;42744;51.094;3.490;2024-02-04T10:03:13;11.77;;;3.17;;
56860;SDS011;42744;51.094;3.490;2024-02-04T10:05:39;7.03;;;2.63;;
56860;SDS011;42744;51.094;3.490;2024-02-04T10:08:04;8.20;;;2.57;;
56860;SDS011;42744;51.094;3.490;2024-02-04T10:10:31;7.07;;;2.73;;
56860;SDS011;42744;51.094;3.490;2024-02-04T10:12:57;5.87;;;2.23;;
56860;SDS011;42744;51.094;3.490;2024-02-04T10:15:23;5.40;;;2.10;;
56860;SDS011;42744;51.094;3.490;2024-02-04T10:17:55;5.87;;;2.53;;
56860;SDS011;42744;51.094;3.490;2024-02-04T10:20:21;7.47;;;2.67;;
56860;SDS011;42744;51.094;3.490;2024-02-04T10:22:47;6.63;;;2.47;;
56860;SDS011;42744;51.094;3.490;2024-02-04T10:25:15;12.20;;;3.03;;
56860;SDS011;42744;51.094;3.490;2024-02-04T10:27:41;6.10;;;2.53;;
56860;SDS011;42744;51.094;3.490;2024-02-04T10:30:08;7.13;;;3.03;;
56860;SDS011;42744;51.094;3.490;2024-02-04T10:32:34;9.07;;;2.83;;
56860;SDS011;42744;51.094;3.490;2024-02-04T10:35:00;7.10;;;2.70;;
56860;SDS011;42744;51.094;3.490;2024-02-04T10:37:27;7.50;;;2.43;;
56860;SDS011;42744;51.094;3.490;2024-02-04T10:39:53;9.47;;;2.97;;
56860;SDS011;42744;51.094;3.490;2024-02-04T10:42:21;5.80;;;2.53;;
56860;SDS011;42744;51.094;3.490;2024-02-04T10:44:54;8.17;;;3.00;;
56860;SDS011;42744;51.094;3.490;2024-02-04T10:47:23;10.77;;;2.90;;
56860;SDS011;42744;51.094;3.490;2024-02-04T10:49:54;6.20;;;2.73;;
56860;SDS011;42744;51.094;3.490;2024-02-04T10:52:26;7.77;;;3.00;;
56860;SDS011;42744;51.094;3.490;2024-02-04T10:54:53;12.43;;;2.90;;
56860;SDS011;42744;51.094;3.490;2024-02-04T10:57:22;8.63;;;2.63;;
56860;SDS011;42744;51.094;3.490;2024-02-04T10:59:48;11.53;;;3.03;;
56860;SDS011;42744;51.094;3.490;2024-02-04T11:02:16;11.47;;;3.13;;
56860;SDS011;42744;51.094;3.490;2024-02-04T11:04:44;10.03;;;3.10;;
56860;SDS011;42744;51.094;3.490;2024-02-04T11:07:14;6.57;;;2.67;;
56860;SDS011;42744;51.094;3.490;2024-02-04T11:09:40;8.30;;;2.83;;
56860;SDS011;42744;51.094;3.490;2024-02-04T11:12:08;8.30;;;2.50;;
56860;SDS011;42744;51.094;3.490;2024-02-04T11:14:39;9.43;;;2.83;;
56860;SDS011;42744;51.094;3.490;2024-02-04T11:17:24;8.53;;;2.50;;
56860;SDS011;42744;51.094;3.490;2024-02-04T11:20:08;8.43;;;2.60;;
56860;SDS011;42744;51.094;3.490;2024-02-04T11:25:59;8.90;;;2.33;;
56860;SDS011;42744;51.094;3.490;2024-02-04T11:28:26;7.57;;;2.20;;
56860;SDS011;42744;51.094;3.490;2024-02-04T11:30:52;5.73;;;1.80;;
56860;SDS011;42744;51.094;3.490;2024-02-04T11:33:19;6.03;;;2.30;;
56860;SDS011;42744;51.094;3.490;2024-02-04T11:35:46;7.20;;;2.43;;
56860;SDS011;42744;51.094;3.490;2024-02-04T11:38:28;4.63;;;1.50;;
56860;SDS011;42744;51.094;3.490;2024-02-04T11:40:55;4.90;;;1.77;;
56860;SDS011;42744;51.094;3.490;2024-02-04T11:43:22;8.20;;;2.27;;
56860;SDS011;42744;51.094;3.490;2024-02-04T11:45:51;7.93;;;2.10;;
56860;SDS011;42744;51.094;3.490;2024-02-04T11:48:18;8.23;;;1.90;;
56860;SDS011;42744;51.094;3.490;2024-02-04T11:50:52;5.53;;;1.90;;
56860;SDS011;42744;51.094;3.490;2024-02-04T11:53:18;7.47;;;1.53;;
56860;SDS011;42744;51.094;3.490;2024-02-04T11:55:45;6.37;;;2.43;;
56860;SDS011;42744;51.094;3.490;2024-02-04T11:58:11;6.73;;;1.43;;
56860;SDS011;42744;51.094;3.490;2024-02-04T12:00:37;9.63;;;1.80;;
56860;SDS011;42744;51.094;3.490;2024-02-04T12:03:08;5.97;;;1.47;;
56860;SDS011;42744;51.094;3.490;2024-02-04T12:05:35;11.30;;;2.00;;
56860;SDS011;42744;51.094;3.490;2024-02-04T12:08:01;4.57;;;1.60;;
56860;SDS011;42744;51.094;3.490;2024-02-04T12:10:30;5.60;;;1.77;;
56860;SDS011;42744;51.094;3.490;2024-02-04T12:12:58;7.13;;;1.70;;
56860;SDS011;42744;51.094;3.490;2024-02-04T12:15:25;7.07;;;1.50;;
56860;SDS011;42744;51.094;3.490;2024-02-04T12:17:51;5.43;;;1.93;;
56860;SDS011;42744;51.094;3.490;2024-02-04T12:20:17;7.80;;;1.77;;
56860;SDS011;42744;51.094;3.490;2024-02-04T12:22:43;6.67;;;1.70;;
56860;SDS011;42744;51.094;3.490;2024-02-04T12:25:09;8.20;;;2.07;;
56860;SDS011;42744;51.094;3.490;2024-02-04T12:27:36;8.13;;;1.60;;
56860;SDS011;42744;51.094;3.490;2024-02-04T12:30:02;5.97;;;1.40;;
56860;SDS011;42744;51.094;3.490;2024-02-04T12:32:30;9.20;;;2.37;;
56860;SDS011;42744;51.094;3.490;2024-02-04T12:34:57;8.13;;;2.10;;
56860;SDS011;42744;51.094;3.490;2024-02-04T12:37:23;8.10;;;2.20;;
56860;SDS011;42744;51.094;3.490;2024-02-04T12:39:51;8.07;;;1.90;;
56860;SDS011;42744;51.094;3.490;2024-02-04T12:42:17;12.03;;;2.27;;
56860;SDS011;42744;51.094;3.490;2024-02-04T12:44:46;10.30;;;2.50;;
56860;SDS011;42744;51.094;3.490;2024-02-04T12:47:19;7.10;;;2.40;;
56860;SDS011;42744;51.094;3.490;2024-02-04T12:49:45;9.80;;;2.30;;
56860;SDS011;42744;51.094;3.490;2024-02-04T12:52:11;8.33;;;2.43;;
56860;SDS011;42744;51.094;3.490;2024-02-04T12:54:44;7.17;;;2.70;;
56860;SDS011;42744;51.094;3.490;2024-02-04T12:57:10;13.83;;;2.70;;
56860;SDS011;42744;51.094;3.490;2024-02-04T12:59:47;8.00;;;2.40;;
56860;SDS011;42744;51.094;3.490;2024-02-04T13:02:13;9.13;;;3.13;;
56860;SDS011;42744;51.094;3.490;2024-02-04T13:04:40;10.40;;;2.93;;
56860;SDS011;42744;51.094;3.490;2024-02-04T13:07:08;13.60;;;3.20;;
56860;SDS011;42744;51.094;3.490;2024-02-04T13:09:36;11.87;;;4.30;;
56860;SDS011;42744;51.094;3.490;2024-02-04T13:12:03;13.47;;;3.70;;
56860;SDS011;42744;51.094;3.490;2024-02-04T13:14:36;12.17;;;3.70;;
56860;SDS011;42744;51.094;3.490;2024-02-04T13:17:03;8.53;;;2.70;;
56860;SDS011;42744;51.094;3.490;2024-02-04T13:19:33;10.07;;;2.30;;
56860;SDS011;42744;51.094;3.490;2024-02-04T13:22:00;10.37;;;2.53;;
56860;SDS011;42744;51.094;3.490;2024-02-04T13:24:26;10.63;;;2.60;;
56860;SDS011;42744;51.094;3.490;2024-02-04T13:26:52;9.20;;;3.10;;
56860;SDS011;42744;51.094;3.490;2024-02-04T13:29:18;9.17;;;2.17;;
56860;SDS011;42744;51.094;3.490;2024-02-04T13:31:44;10.60;;;2.70;;
56860;SDS011;42744;51.094;3.490;2024-02-04T13:34:12;13.13;;;2.67;;
56860;SDS011;42744;51.094;3.490;2024-02-04T13:36:38;10.87;;;3.10;;
56860;SDS011;42744;51.094;3.490;2024-02-04T13:39:04;11.87;;;2.30;;
56860;SDS011;42744;51.094;3.490;2024-02-04T13:41:31;19.80;;;2.87;;
56860;SDS011;42744;51.094;3.490;2024-02-04T13:43:57;14.83;;;3.20;;
56860;SDS011;42744;51.094;3.490;2024-02-04T13:46:23;9.03;;;3.03;;
56860;SDS011;42744;51.094;3.490;2024-02-04T13:48:49;17.93;;;2.83;;
56860;SDS011;42744;51.094;3.490;2024-02-04T13:51:15;10.30;;;2.50;;
56860;SDS011;42744;51.094;3.490;2024-02-04T13:53:41;9.27;;;2.67;;
56860;SDS011;42744;51.094;3.490;2024-02-04T13:56:07;15.53;;;2.70;;
56860;SDS011;42744;51.094;3.490;2024-02-04T13:58:33;11.17;;;3.37;;
56860;SDS011;42744;51.094;3.490;2024-02-04T14:00:59;9.07;;;2.60;;
56860;SDS011;42744;51.094;3.490;2024-02-04T14:03:25;14.70;;;2.93;;
56860;SDS011;42744;51.094;3.490;2024-02-04T14:05:51;13.10;;;2.80;;
56860;SDS011;42744;51.094;3.490;2024-02-04T14:08:17;10.93;;;3.03;;
56860;SDS011;42744;51.094;3.490;2024-02-04T14:10:44;12.83;;;3.33;;
56860;SDS011;42744;51.094;3.490;2024-02-04T14:13:10;12.03;;;2.83;;
56860;SDS011;42744;51.094;3.490;2024-02-04T14:15:37;12.23;;;2.93;;
56860;SDS011;42744;51.094;3.490;2024-02-04T14:18:03;6.67;;;2.03;;
56860;SDS011;42744;51.094;3.490;2024-02-04T14:20:30;12.43;;;2.50;;
56860;SDS011;42744;51.094;3.490;2024-02-04T14:22:56;10.90;;;2.60;;
56860;SDS011;42744;51.094;3.490;2024-02-04T14:25:23;9.40;;;3.17;;
56860;SDS011;42744;51.094;3.490;2024-02-04T14:27:52;12.30;;;2.20;;
56860;SDS011;42744;51.094;3.490;2024-02-04T14:30:18;9.93;;;3.07;;
56860;SDS011;42744;51.094;3.490;2024-02-04T14:32:44;14.17;;;2.73;;
56860;SDS011;42744;51.094;3.490;2024-02-04T14:35:10;14.50;;;2.60;;
56860;SDS011;42744;51.094;3.490;2024-02-04T14:37:36;12.73;;;3.30;;
56860;SDS011;42744;51.094;3.490;2024-02-04T14:40:05;10.90;;;3.13;;
56860;SDS011;42744;51.094;3.490;2024-02-04T14:42:32;13.47;;;3.40;;